Flight Track Log - Related Links

Times and Time Zones

All times are in EDT time to prevent confusion due to time zone crossing. See the N474RL flight status page for this flight to view local times or setup timezone preferences in your user account.

Time Position Orientation Groundspeed Altitude Reporting Facility
EDT Latitude Longitude Course Direction KTS MPH feet Rate Location/Type
Thu 04:18:00 PM 34.5943 -81.8257 117° Southeast  Level Estimated
Thu 04:19:00 PM 34.5659 -81.7853 130° Southeast  Level FlightAware Approximate
Thu 04:20:00 PM 34.5375 -81.7448 130° Southeast  Level FlightAware Approximate
Thu 04:21:00 PM 34.5090 -81.7044 131° Southeast  Level FlightAware Approximate
Thu 04:22:00 PM 34.4806 -81.6641 131° Southeast  Level FlightAware Approximate
Thu 04:23:00 PM 34.4521 -81.6237 131° Southeast  Level FlightAware Approximate
Thu 04:24:00 PM 34.4236 -81.5834 131° Southeast  Level FlightAware Approximate
Thu 04:25:00 PM 34.4101 -81.5329 118° Southeast  Level Estimated
Thu 04:26:00 PM 34.3850 -81.4894 125° Southeast  Level FlightAware Approximate
Thu 04:27:00 PM 34.3599 -81.4460 125° Southeast  Level FlightAware Approximate
Thu 04:27:44 PM 34.3414 -81.4192 114° Southeast 181 208 6,900  Level FlightAware ADS-B (EFHN)
Thu 04:28:00 PM 34.3469 -81.3953 107° East  Level Estimated
Thu 04:28:31 PM 34.3284 -81.3736 107° East 180 207 6,900  Level FlightAware ADS-B (EFHN)
Thu 04:28:53 PM 34.3231 -81.3524 107° East 182 209 6,900  Level FlightAware ADS-B (EFHN)
Thu 04:29:17 PM 34.3171 -81.3290 107° East 183 211 6,900  Level FlightAware ADS-B (EFHN)
Thu 04:29:44 PM 34.3105 -81.3032 107° East 181 208 6,900  Level FlightAware ADS-B (EFHN)
Thu 04:30:37 PM 34.2975 -81.2520 107° East 181 208 6,900  Level FlightAware ADS-B (EFHN)
Thu 04:31:32 PM 34.2843 -81.2005 107° East 181 208 6,900  Level FlightAware ADS-B (EFHN)
Thu 04:32:01 PM 34.2767 -81.1705 107° East 181 208 6,900  Level FlightAware ADS-B (EFHN)
Thu 04:32:23 PM 34.2712 -81.1492 107° East 181 208 6,900  Level FlightAware ADS-B (EFHN)
Thu 04:32:45 PM 34.2659 -81.1284 107° East 181 208 6,900  Level FlightAware ADS-B (EFHN)
Thu 04:33:11 PM 34.2594 -81.1031 107° East 182 209 6,900  Level FlightAware ADS-B (EFHN)
Thu 04:33:57 PM 34.2513 -81.0561 95° East 187 215 6,900  Level FlightAware ADS-B (EFHN)
Thu 04:34:30 PM 34.2474 -81.0231 106° East 184 212 6,900  Level FlightAware ADS-B (EFHN)
Thu 04:42:07 PM 34.1288 -80.5759 108° East 186 214 6,900  Level FlightAware ADS-B (EFHN)
Thu 04:44:02 PM 34.0997 -80.4662 108° East 184 212 6,900  Level FlightAware ADS-B (EFHN)
Thu 04:44:19 PM 34.0948 -80.4474 108° East 184 212 6,900  Level FlightAware ADS-B (EFHN)
Thu 04:46:00 PM 34.0691 -80.3640 110° East  Level FlightAware Approximate
Thu 04:47:00 PM 34.0588 -80.3123 108° East  Level Estimated
Thu 04:48:00 PM 34.0426 -80.2632 112° Southeast  Level FlightAware Approximate
Thu 04:49:00 PM 34.0265 -80.2141 112° Southeast  Level FlightAware Approximate
Thu 04:50:00 PM 34.0103 -80.1650 112° Southeast  Level FlightAware Approximate
Thu 04:51:00 PM 33.9940 -80.1160 112° Southeast  Level FlightAware Approximate
Thu 04:52:00 PM 33.9778 -80.0669 112° Southeast  Level FlightAware Approximate
Thu 04:53:00 PM 33.9628 -80.0172 106° East  Level FlightAware Approximate
Thu 04:54:00 PM 33.9506 -79.9664 106° East  Level FlightAware Approximate
Thu 04:55:00 PM 33.9385 -79.9157 106° East  Level FlightAware Approximate
Thu 04:56:00 PM 33.9263 -79.8651 106° East  Level FlightAware Approximate
Thu 04:57:00 PM 33.9141 -79.8144 106° East  Level FlightAware Approximate
Thu 04:58:00 PM 33.9019 -79.7637 106° East  Level FlightAware Approximate
Thu 04:59:00 PM 33.8896 -79.7131 106° East  Level FlightAware Approximate
Thu 05:00:00 PM 33.8773 -79.6625 106° East  Level FlightAware Approximate
Thu 05:01:00 PM 33.8651 -79.6118 106° East  Level FlightAware Approximate
Thu 05:02:00 PM 33.8527 -79.5612 106° East  Level FlightAware Approximate
Thu 05:03:00 PM 33.8360 -79.5126 114° Southeast  Level FlightAware Approximate
Thu 05:04:00 PM 33.8180 -79.4646 114° Southeast  Level FlightAware Approximate
Thu 05:05:00 PM 33.8000 -79.4165 107° East  Level FlightAware Approximate
Thu 05:06:00 PM 33.7874 -79.3661 107° East  Level FlightAware Approximate
Thu 05:07:00 PM 33.7764 -79.3151 104° East  Level FlightAware Approximate
Thu 05:08:00 PM 33.7659 -79.2640 108° East  Level FlightAware Approximate
Thu 05:09:00 PM 33.7526 -79.2138 108° East  Level FlightAware Approximate
Thu 05:10:00 PM 33.7393 -79.1636 108° East  Level FlightAware Approximate
Thu 05:11:00 PM 33.7259 -79.1135 108° East  Level FlightAware Approximate
Thu 05:12:00 PM 33.7125 -79.0634 108° East  Level FlightAware Approximate
Thu 05:13:00 PM 33.6989 -79.0134 112° Southeast  Level FlightAware Approximate
Thu 05:14:00 PM 33.6826 -78.9645 112° Southeast  Level FlightAware Approximate
Thu 05:15:00 PM 33.6797 -78.9283 112° Southeast  Level Estimated
Thu 05:16:00 PM 33.6797 -78.9283 143° Southeast  Level Estimated
Thu 05:17:00 PM 33.6797 -78.9283 143° Southeast  Level Estimated

Login

Don't have an account? Register now (free) for customized features, flight alerts, and more!